sensor_id;sensor_type;location;lat;lon;timestamp;P1;durP1;ratioP1;P2;durP2;ratioP2
19946;SDS011;10135;50.702;7.276;2022-12-18T06:30:55;30.03;;;13.00;;
19946;SDS011;10135;50.702;7.276;2022-12-18T06:32:56;30.63;;;12.87;;
19946;SDS011;10135;50.702;7.276;2022-12-18T06:34:56;29.27;;;11.93;;
19946;SDS011;10135;50.702;7.276;2022-12-18T06:36:57;28.87;;;12.70;;
19946;SDS011;10135;50.702;7.276;2022-12-18T06:38:58;33.30;;;13.20;;
19946;SDS011;10135;50.702;7.276;2022-12-18T06:40:59;31.00;;;13.33;;
19946;SDS011;10135;50.702;7.276;2022-12-18T06:43:00;28.10;;;12.47;;
19946;SDS011;10135;50.702;7.276;2022-12-18T06:45:00;29.90;;;13.43;;
19946;SDS011;10135;50.702;7.276;2022-12-18T06:47:01;29.47;;;12.97;;
19946;SDS011;10135;50.702;7.276;2022-12-18T06:49:02;27.20;;;11.63;;
19946;SDS011;10135;50.702;7.276;2022-12-18T06:51:03;25.57;;;12.53;;
19946;SDS011;10135;50.702;7.276;2022-12-18T06:53:05;30.00;;;12.63;;
19946;SDS011;10135;50.702;7.276;2022-12-18T06:55:06;26.60;;;12.90;;
19946;SDS011;10135;50.702;7.276;2022-12-18T06:57:08;27.33;;;12.63;;
19946;SDS011;10135;50.702;7.276;2022-12-18T06:59:08;30.37;;;13.53;;
19946;SDS011;10135;50.702;7.276;2022-12-18T07:01:10;28.70;;;12.70;;
19946;SDS011;10135;50.702;7.276;2022-12-18T07:03:12;27.93;;;12.63;;
19946;SDS011;10135;50.702;7.276;2022-12-18T07:05:13;29.87;;;12.60;;
19946;SDS011;10135;50.702;7.276;2022-12-18T07:07:13;28.80;;;12.50;;
19946;SDS011;10135;50.702;7.276;2022-12-18T07:09:14;25.40;;;12.73;;
19946;SDS011;10135;50.702;7.276;2022-12-18T07:11:15;31.93;;;13.83;;
19946;SDS011;10135;50.702;7.276;2022-12-18T07:13:17;28.33;;;12.93;;
19946;SDS011;10135;50.702;7.276;2022-12-18T07:15:18;28.53;;;12.57;;
19946;SDS011;10135;50.702;7.276;2022-12-18T07:17:18;29.03;;;12.47;;
19946;SDS011;10135;50.702;7.276;2022-12-18T07:19:19;29.87;;;13.07;;
19946;SDS011;10135;50.702;7.276;2022-12-18T07:21:20;29.53;;;12.43;;
19946;SDS011;10135;50.702;7.276;2022-12-18T07:23:22;33.57;;;13.50;;
19946;SDS011;10135;50.702;7.276;2022-12-18T07:25:22;27.43;;;12.33;;
19946;SDS011;10135;50.702;7.276;2022-12-18T07:27:23;28.50;;;13.17;;
19946;SDS011;10135;50.702;7.276;2022-12-18T07:29:24;29.00;;;13.37;;
19946;SDS011;10135;50.702;7.276;2022-12-18T07:31:25;27.07;;;12.27;;
19946;SDS011;10135;50.702;7.276;2022-12-18T07:33:26;28.37;;;12.97;;
19946;SDS011;10135;50.702;7.276;2022-12-18T07:35:27;30.47;;;13.03;;
19946;SDS011;10135;50.702;7.276;2022-12-18T07:37:27;25.10;;;11.77;;
19946;SDS011;10135;50.702;7.276;2022-12-18T07:39:28;25.27;;;11.80;;
19946;SDS011;10135;50.702;7.276;2022-12-18T07:41:28;27.07;;;12.97;;
19946;SDS011;10135;50.702;7.276;2022-12-18T07:43:29;30.00;;;12.37;;
19946;SDS011;10135;50.702;7.276;2022-12-18T07:45:30;28.93;;;12.17;;
19946;SDS011;10135;50.702;7.276;2022-12-18T07:47:31;27.50;;;12.07;;
19946;SDS011;10135;50.702;7.276;2022-12-18T07:49:35;30.60;;;13.33;;
19946;SDS011;10135;50.702;7.276;2022-12-18T07:51:36;26.13;;;12.23;;
19946;SDS011;10135;50.702;7.276;2022-12-18T07:53:37;32.40;;;13.47;;
19946;SDS011;10135;50.702;7.276;2022-12-18T07:55:38;29.67;;;12.73;;
19946;SDS011;10135;50.702;7.276;2022-12-18T07:57:38;25.50;;;12.87;;
19946;SDS011;10135;50.702;7.276;2022-12-18T07:59:39;31.03;;;12.67;;
19946;SDS011;10135;50.702;7.276;2022-12-18T08:01:40;28.10;;;13.27;;
19946;SDS011;10135;50.702;7.276;2022-12-18T08:03:40;28.47;;;12.47;;
19946;SDS011;10135;50.702;7.276;2022-12-18T08:05:41;29.83;;;13.27;;
19946;SDS011;10135;50.702;7.276;2022-12-18T08:07:42;29.00;;;12.40;;
19946;SDS011;10135;50.702;7.276;2022-12-18T08:09:42;27.30;;;12.80;;
19946;SDS011;10135;50.702;7.276;2022-12-18T08:11:43;25.40;;;12.60;;
19946;SDS011;10135;50.702;7.276;2022-12-18T08:13:44;29.93;;;12.50;;
19946;SDS011;10135;50.702;7.276;2022-12-18T08:15:44;26.70;;;12.03;;
19946;SDS011;10135;50.702;7.276;2022-12-18T08:17:45;29.53;;;13.50;;
19946;SDS011;10135;50.702;7.276;2022-12-18T08:19:46;29.73;;;12.97;;
19946;SDS011;10135;50.702;7.276;2022-12-18T08:21:46;25.70;;;12.00;;
19946;SDS011;10135;50.702;7.276;2022-12-18T08:23:47;25.47;;;13.00;;
19946;SDS011;10135;50.702;7.276;2022-12-18T08:25:49;30.03;;;13.40;;
19946;SDS011;10135;50.702;7.276;2022-12-18T08:27:50;25.57;;;12.70;;
19946;SDS011;10135;50.702;7.276;2022-12-18T08:29:51;28.20;;;12.77;;
19946;SDS011;10135;50.702;7.276;2022-12-18T08:31:52;24.50;;;11.97;;
19946;SDS011;10135;50.702;7.276;2022-12-18T08:33:53;29.63;;;13.53;;
19946;SDS011;10135;50.702;7.276;2022-12-18T08:35:54;25.57;;;12.83;;
19946;SDS011;10135;50.702;7.276;2022-12-18T08:37:55;24.57;;;12.87;;
19946;SDS011;10135;50.702;7.276;2022-12-18T08:39:55;30.17;;;13.23;;
19946;SDS011;10135;50.702;7.276;2022-12-18T08:41:56;28.93;;;13.60;;
19946;SDS011;10135;50.702;7.276;2022-12-18T08:44:15;28.17;;;13.90;;
19946;SDS011;10135;50.702;7.276;2022-12-18T08:46:38;26.70;;;12.50;;
19946;SDS011;10135;50.702;7.276;2022-12-18T08:48:42;25.17;;;12.27;;
19946;SDS011;10135;50.702;7.276;2022-12-18T08:50:43;24.50;;;12.47;;
19946;SDS011;10135;50.702;7.276;2022-12-18T08:52:52;26.30;;;12.70;;
19946;SDS011;10135;50.702;7.276;2022-12-18T08:54:53;25.97;;;12.20;;
19946;SDS011;10135;50.702;7.276;2022-12-18T08:56:54;22.80;;;11.80;;
19946;SDS011;10135;50.702;7.276;2022-12-18T08:58:54;23.70;;;11.77;;
19946;SDS011;10135;50.702;7.276;2022-12-18T09:01:00;24.83;;;12.53;;
19946;SDS011;10135;50.702;7.276;2022-12-18T09:03:10;24.20;;;12.43;;
19946;SDS011;10135;50.702;7.276;2022-12-18T09:05:14;24.47;;;12.00;;
19946;SDS011;10135;50.702;7.276;2022-12-18T09:07:15;27.17;;;12.50;;
19946;SDS011;10135;50.702;7.276;2022-12-18T09:09:16;25.07;;;12.17;;
19946;SDS011;10135;50.702;7.276;2022-12-18T09:11:21;24.07;;;11.87;;
19946;SDS011;10135;50.702;7.276;2022-12-18T09:13:25;25.13;;;11.70;;
19946;SDS011;10135;50.702;7.276;2022-12-18T09:15:25;22.17;;;12.03;;
19946;SDS011;10135;50.702;7.276;2022-12-18T09:17:26;24.50;;;11.87;;
19946;SDS011;10135;50.702;7.276;2022-12-18T09:19:26;25.90;;;12.10;;
19946;SDS011;10135;50.702;7.276;2022-12-18T09:21:28;26.77;;;12.70;;
19946;SDS011;10135;50.702;7.276;2022-12-18T09:23:32;21.87;;;11.57;;
19946;SDS011;10135;50.702;7.276;2022-12-18T09:25:33;24.87;;;11.83;;
19946;SDS011;10135;50.702;7.276;2022-12-18T09:27:35;24.23;;;11.87;;
19946;SDS011;10135;50.702;7.276;2022-12-18T09:29:36;35.10;;;15.27;;
19946;SDS011;10135;50.702;7.276;2022-12-18T09:31:37;68.93;;;25.33;;
19946;SDS011;10135;50.702;7.276;2022-12-18T09:33:39;34.20;;;14.77;;
19946;SDS011;10135;50.702;7.276;2022-12-18T09:35:40;29.17;;;14.50;;
19946;SDS011;10135;50.702;7.276;2022-12-18T09:37:43;28.70;;;12.87;;
19946;SDS011;10135;50.702;7.276;2022-12-18T09:39:44;27.60;;;13.33;;
19946;SDS011;10135;50.702;7.276;2022-12-18T09:41:50;26.20;;;11.93;;
19946;SDS011;10135;50.702;7.276;2022-12-18T09:43:54;26.07;;;12.50;;
19946;SDS011;10135;50.702;7.276;2022-12-18T09:46:03;28.80;;;12.97;;
19946;SDS011;10135;50.702;7.276;2022-12-18T09:48:14;23.50;;;12.30;;
19946;SDS011;10135;50.702;7.276;2022-12-18T09:50:25;24.00;;;11.37;;
19946;SDS011;10135;50.702;7.276;2022-12-18T09:52:41;25.50;;;12.37;;
19946;SDS011;10135;50.702;7.276;2022-12-18T09:54:52;26.47;;;12.27;;
19946;SDS011;10135;50.702;7.276;2022-12-18T09:57:01;27.87;;;12.07;;
19946;SDS011;10135;50.702;7.276;2022-12-18T09:59:04;23.50;;;11.97;;
19946;SDS011;10135;50.702;7.276;2022-12-18T10:01:12;23.80;;;11.83;;
19946;SDS011;10135;50.702;7.276;2022-12-18T10:03:18;23.20;;;11.43;;
19946;SDS011;10135;50.702;7.276;2022-12-18T10:05:20;26.97;;;13.13;;
19946;SDS011;10135;50.702;7.276;2022-12-18T10:07:59;24.10;;;11.33;;
19946;SDS011;10135;50.702;7.276;2022-12-18T10:10:23;24.17;;;11.60;;
19946;SDS011;10135;50.702;7.276;2022-12-18T10:13:03;24.83;;;13.07;;
19946;SDS011;10135;50.702;7.276;2022-12-18T10:16:02;27.07;;;11.77;;
19946;SDS011;10135;50.702;7.276;2022-12-18T10:18:32;24.93;;;11.77;;
19946;SDS011;10135;50.702;7.276;2022-12-18T10:21:19;24.03;;;11.70;;
19946;SDS011;10135;50.702;7.276;2022-12-18T10:23:33;23.67;;;12.03;;
19946;SDS011;10135;50.702;7.276;2022-12-18T10:26:11;24.20;;;11.60;;
19946;SDS011;10135;50.702;7.276;2022-12-18T10:28:13;25.60;;;11.90;;
19946;SDS011;10135;50.702;7.276;2022-12-18T10:30:18;23.23;;;11.87;;
19946;SDS011;10135;50.702;7.276;2022-12-18T10:32:23;23.17;;;10.93;;
19946;SDS011;10135;50.702;7.276;2022-12-18T10:34:26;26.53;;;12.40;;
19946;SDS011;10135;50.702;7.276;2022-12-18T10:36:27;21.97;;;11.40;;
19946;SDS011;10135;50.702;7.276;2022-12-18T10:38:31;24.73;;;12.13;;
19946;SDS011;10135;50.702;7.276;2022-12-18T10:40:36;22.17;;;11.63;;
19946;SDS011;10135;50.702;7.276;2022-12-18T10:43:09;23.90;;;12.10;;
19946;SDS011;10135;50.702;7.276;2022-12-18T10:45:14;23.33;;;11.07;;
19946;SDS011;10135;50.702;7.276;2022-12-18T10:47:19;22.77;;;11.40;;
19946;SDS011;10135;50.702;7.276;2022-12-18T10:49:22;25.47;;;12.07;;
19946;SDS011;10135;50.702;7.276;2022-12-18T10:51:30;23.37;;;11.33;;
19946;SDS011;10135;50.702;7.276;2022-12-18T10:53:37;25.23;;;12.23;;
19946;SDS011;10135;50.702;7.276;2022-12-18T10:55:43;23.53;;;11.90;;
19946;SDS011;10135;50.702;7.276;2022-12-18T10:57:46;24.17;;;11.80;;
19946;SDS011;10135;50.702;7.276;2022-12-18T10:59:51;21.90;;;11.30;;
19946;SDS011;10135;50.702;7.276;2022-12-18T11:01:56;23.13;;;11.43;;
19946;SDS011;10135;50.702;7.276;2022-12-18T11:03:59;26.23;;;12.20;;
19946;SDS011;10135;50.702;7.276;2022-12-18T11:06:19;24.20;;;12.10;;
19946;SDS011;10135;50.702;7.276;2022-12-18T11:08:24;24.57;;;11.57;;
19946;SDS011;10135;50.702;7.276;2022-12-18T11:10:28;22.17;;;11.20;;
19946;SDS011;10135;50.702;7.276;2022-12-18T11:12:39;23.93;;;11.47;;
19946;SDS011;10135;50.702;7.276;2022-12-18T11:14:50;24.13;;;11.97;;
19946;SDS011;10135;50.702;7.276;2022-12-18T11:16:53;23.60;;;11.93;;
19946;SDS011;10135;50.702;7.276;2022-12-18T11:19:08;22.70;;;11.03;;
19946;SDS011;10135;50.702;7.276;2022-12-18T11:21:38;21.40;;;12.27;;
19946;SDS011;10135;50.702;7.276;2022-12-18T11:23:46;22.90;;;12.10;;
19946;SDS011;10135;50.702;7.276;2022-12-18T11:26:04;28.07;;;12.57;;
19946;SDS011;10135;50.702;7.276;2022-12-18T11:28:25;21.97;;;11.63;;
19946;SDS011;10135;50.702;7.276;2022-12-18T11:33:31;24.17;;;11.87;;
19946;SDS011;10135;50.702;7.276;2022-12-18T11:35:37;23.17;;;12.07;;
19946;SDS011;10135;50.702;7.276;2022-12-18T11:37:59;24.27;;;12.33;;
19946;SDS011;10135;50.702;7.276;2022-12-18T11:40:17;29.53;;;12.47;;
19946;SDS011;10135;50.702;7.276;2022-12-18T11:42:30;26.37;;;11.83;;
19946;SDS011;10135;50.702;7.276;2022-12-18T11:44:58;24.40;;;12.20;;
19946;SDS011;10135;50.702;7.276;2022-12-18T11:47:21;27.40;;;12.47;;
19946;SDS011;10135;50.702;7.276;2022-12-18T11:49:38;24.50;;;12.33;;
19946;SDS011;10135;50.702;7.276;2022-12-18T11:51:54;26.13;;;12.43;;
19946;SDS011;10135;50.702;7.276;2022-12-18T11:54:09;24.57;;;12.27;;
19946;SDS011;10135;50.702;7.276;2022-12-18T11:56:30;25.13;;;12.13;;
19946;SDS011;10135;50.702;7.276;2022-12-18T12:01:36;24.93;;;12.30;;
19946;SDS011;10135;50.702;7.276;2022-12-18T12:03:59;28.97;;;13.20;;
19946;SDS011;10135;50.702;7.276;2022-12-18T12:09:11;25.63;;;12.60;;
19946;SDS011;10135;50.702;7.276;2022-12-18T12:14:34;26.77;;;13.27;;
19946;SDS011;10135;50.702;7.276;2022-12-18T12:19:39;25.80;;;12.47;;
19946;SDS011;10135;50.702;7.276;2022-12-18T12:23:00;28.60;;;13.73;;
19946;SDS011;10135;50.702;7.276;2022-12-18T12:24:51;26.57;;;12.87;;
19946;SDS011;10135;50.702;7.276;2022-12-18T12:27:13;25.83;;;13.07;;
19946;SDS011;10135;50.702;7.276;2022-12-18T12:29:50;29.53;;;12.90;;
19946;SDS011;10135;50.702;7.276;2022-12-18T12:39:40;27.03;;;13.50;;
19946;SDS011;10135;50.702;7.276;2022-12-18T12:41:45;26.60;;;13.63;;
19946;SDS011;10135;50.702;7.276;2022-12-18T12:44:07;32.10;;;14.43;;
19946;SDS011;10135;50.702;7.276;2022-12-18T12:46:20;29.53;;;13.30;;
19946;SDS011;10135;50.702;7.276;2022-12-18T12:48:27;28.07;;;13.47;;
19946;SDS011;10135;50.702;7.276;2022-12-18T12:50:35;27.93;;;13.23;;
19946;SDS011;10135;50.702;7.276;2022-12-18T12:52:39;28.70;;;13.87;;
19946;SDS011;10135;50.702;7.276;2022-12-18T12:54:44;30.00;;;14.70;;
19946;SDS011;10135;50.702;7.276;2022-12-18T12:56:54;30.73;;;14.60;;
19946;SDS011;10135;50.702;7.276;2022-12-18T12:59:19;29.10;;;13.93;;
19946;SDS011;10135;50.702;7.276;2022-12-18T13:02:18;26.53;;;13.47;;
19946;SDS011;10135;50.702;7.276;2022-12-18T13:08:54;30.27;;;14.30;;
19946;SDS011;10135;50.702;7.276;2022-12-18T13:11:00;31.10;;;13.97;;
19946;SDS011;10135;50.702;7.276;2022-12-18T13:13:19;29.03;;;13.83;;
19946;SDS011;10135;50.702;7.276;2022-12-18T13:15:21;32.20;;;14.23;;
19946;SDS011;10135;50.702;7.276;2022-12-18T13:17:34;28.47;;;14.13;;
19946;SDS011;10135;50.702;7.276;2022-12-18T13:19:34;30.97;;;14.70;;
19946;SDS011;10135;50.702;7.276;2022-12-18T13:21:35;29.20;;;13.77;;
19946;SDS011;10135;50.702;7.276;2022-12-18T13:23:36;31.47;;;14.10;;
19946;SDS011;10135;50.702;7.276;2022-12-18T13:25:38;35.33;;;15.43;;
19946;SDS011;10135;50.702;7.276;2022-12-18T13:27:46;33.10;;;14.80;;
19946;SDS011;10135;50.702;7.276;2022-12-18T13:30:11;30.57;;;14.43;;
19946;SDS011;10135;50.702;7.276;2022-12-18T13:32:45;29.33;;;14.63;;
19946;SDS011;10135;50.702;7.276;2022-12-18T13:34:46;28.90;;;14.13;;
19946;SDS011;10135;50.702;7.276;2022-12-18T13:36:47;28.27;;;14.17;;
19946;SDS011;10135;50.702;7.276;2022-12-18T13:39:10;30.60;;;14.30;;
19946;SDS011;10135;50.702;7.276;2022-12-18T13:41:24;30.73;;;14.60;;
19946;SDS011;10135;50.702;7.276;2022-12-18T13:45:50;29.60;;;14.37;;
19946;SDS011;10135;50.702;7.276;2022-12-18T13:48:19;30.33;;;14.00;;
19946;SDS011;10135;50.702;7.276;2022-12-18T13:50:23;30.73;;;14.07;;
19946;SDS011;10135;50.702;7.276;2022-12-18T13:52:26;31.27;;;14.70;;
19946;SDS011;10135;50.702;7.276;2022-12-18T13:54:35;29.27;;;14.00;;
19946;SDS011;10135;50.702;7.276;2022-12-18T13:56:43;28.20;;;14.17;;
19946;SDS011;10135;50.702;7.276;2022-12-18T13:59:02;28.03;;;14.33;;
19946;SDS011;10135;50.702;7.276;2022-12-18T14:01:43;30.27;;;14.30;;
19946;SDS011;10135;50.702;7.276;2022-12-18T14:03:46;30.27;;;14.93;;
19946;SDS011;10135;50.702;7.276;2022-12-18T14:05:51;31.93;;;14.33;;
19946;SDS011;10135;50.702;7.276;2022-12-18T14:08:05;26.93;;;13.53;;
19946;SDS011;10135;50.702;7.276;2022-12-18T14:10:11;27.50;;;13.73;;
19946;SDS011;10135;50.702;7.276;2022-12-18T14:12:17;32.03;;;14.67;;
19946;SDS011;10135;50.702;7.276;2022-12-18T14:14:46;31.10;;;14.67;;
19946;SDS011;10135;50.702;7.276;2022-12-18T14:16:50;27.60;;;14.10;;
19946;SDS011;10135;50.702;7.276;2022-12-18T14:18:53;30.73;;;14.80;;
19946;SDS011;10135;50.702;7.276;2022-12-18T14:20:58;26.90;;;14.70;;
19946;SDS011;10135;50.702;7.276;2022-12-18T14:23:01;33.27;;;16.13;;
19946;SDS011;10135;50.702;7.276;2022-12-18T14:25:10;29.80;;;14.67;;
19946;SDS011;10135;50.702;7.276;2022-12-18T14:27:23;30.27;;;13.97;;
19946;SDS011;10135;50.702;7.276;2022-12-18T14:29:26;31.80;;;15.37;;
19946;SDS011;10135;50.702;7.276;2022-12-18T14:31:30;33.37;;;15.43;;
19946;SDS011;10135;50.702;7.276;2022-12-18T14:33:31;29.33;;;15.27;;
19946;SDS011;10135;50.702;7.276;2022-12-18T14:35:32;30.47;;;15.47;;
19946;SDS011;10135;50.702;7.276;2022-12-18T14:37:39;29.43;;;14.40;;
19946;SDS011;10135;50.702;7.276;2022-12-18T14:39:40;31.80;;;15.50;;
19946;SDS011;10135;50.702;7.276;2022-12-18T14:41:52;31.63;;;15.13;;
19946;SDS011;10135;50.702;7.276;2022-12-18T14:43:53;30.40;;;14.53;;
19946;SDS011;10135;50.702;7.276;2022-12-18T14:45:55;30.70;;;15.23;;
19946;SDS011;10135;50.702;7.276;2022-12-18T14:47:58;30.83;;;14.67;;
19946;SDS011;10135;50.702;7.276;2022-12-18T14:50:00;31.57;;;15.03;;
19946;SDS011;10135;50.702;7.276;2022-12-18T14:52:01;29.97;;;14.70;;
19946;SDS011;10135;50.702;7.276;2022-12-18T14:54:06;32.17;;;15.33;;
19946;SDS011;10135;50.702;7.276;2022-12-18T14:58:21;31.33;;;15.33;;
19946;SDS011;10135;50.702;7.276;2022-12-18T15:00:22;35.17;;;15.37;;
19946;SDS011;10135;50.702;7.276;2022-12-18T15:02:26;32.40;;;15.63;;
19946;SDS011;10135;50.702;7.276;2022-12-18T15:04:39;33.23;;;15.80;;
19946;SDS011;10135;50.702;7.276;2022-12-18T15:06:41;28.63;;;14.37;;
19946;SDS011;10135;50.702;7.276;2022-12-18T15:08:42;30.00;;;14.33;;
19946;SDS011;10135;50.702;7.276;2022-12-18T15:10:46;32.30;;;15.50;;
19946;SDS011;10135;50.702;7.276;2022-12-18T15:12:48;28.93;;;14.93;;
19946;SDS011;10135;50.702;7.276;2022-12-18T15:14:50;33.47;;;15.47;;
19946;SDS011;10135;50.702;7.276;2022-12-18T15:16:52;31.97;;;15.37;;
19946;SDS011;10135;50.702;7.276;2022-12-18T15:18:54;31.50;;;15.00;;
19946;SDS011;10135;50.702;7.276;2022-12-18T15:20:56;32.70;;;15.17;;
19946;SDS011;10135;50.702;7.276;2022-12-18T15:23:26;34.10;;;15.47;;
19946;SDS011;10135;50.702;7.276;2022-12-18T15:25:34;32.67;;;15.60;;
19946;SDS011;10135;50.702;7.276;2022-12-18T15:27:37;32.37;;;15.60;;
19946;SDS011;10135;50.702;7.276;2022-12-18T15:29:38;30.43;;;16.07;;
19946;SDS011;10135;50.702;7.276;2022-12-18T15:31:39;33.87;;;16.40;;
19946;SDS011;10135;50.702;7.276;2022-12-18T15:33:41;33.10;;;16.03;;
19946;SDS011;10135;50.702;7.276;2022-12-18T15:36:04;34.53;;;16.33;;
19946;SDS011;10135;50.702;7.276;2022-12-18T15:38:16;33.33;;;15.50;;
19946;SDS011;10135;50.702;7.276;2022-12-18T15:40:17;33.23;;;16.30;;
19946;SDS011;10135;50.702;7.276;2022-12-18T15:42:23;36.27;;;16.23;;
19946;SDS011;10135;50.702;7.276;2022-12-18T15:44:43;32.80;;;15.87;;
19946;SDS011;10135;50.702;7.276;2022-12-18T15:46:43;29.03;;;15.53;;
19946;SDS011;10135;50.702;7.276;2022-12-18T15:48:45;34.27;;;16.43;;
19946;SDS011;10135;50.702;7.276;2022-12-18T15:50:52;32.07;;;15.87;;
19946;SDS011;10135;50.702;7.276;2022-12-18T15:52:56;32.17;;;15.43;;
19946;SDS011;10135;50.702;7.276;2022-12-18T15:54:57;30.50;;;15.67;;
19946;SDS011;10135;50.702;7.276;2022-12-18T15:57:16;37.67;;;16.70;;
19946;SDS011;10135;50.702;7.276;2022-12-18T15:59:23;35.23;;;17.50;;
19946;SDS011;10135;50.702;7.276;2022-12-18T16:01:24;32.87;;;16.67;;
19946;SDS011;10135;50.702;7.276;2022-12-18T16:03:29;37.73;;;16.93;;
19946;SDS011;10135;50.702;7.276;2022-12-18T16:05:30;36.50;;;16.13;;
19946;SDS011;10135;50.702;7.276;2022-12-18T16:07:31;35.27;;;15.83;;
19946;SDS011;10135;50.702;7.276;2022-12-18T16:09:32;36.93;;;16.77;;
19946;SDS011;10135;50.702;7.276;2022-12-18T16:11:33;37.27;;;16.73;;
19946;SDS011;10135;50.702;7.276;2022-12-18T16:13:40;34.47;;;15.80;;
19946;SDS011;10135;50.702;7.276;2022-12-18T16:15:41;36.97;;;16.50;;
19946;SDS011;10135;50.702;7.276;2022-12-18T16:17:45;35.20;;;16.87;;
19946;SDS011;10135;50.702;7.276;2022-12-18T16:19:48;33.70;;;15.87;;
19946;SDS011;10135;50.702;7.276;2022-12-18T16:21:49;35.63;;;16.73;;
19946;SDS011;10135;50.702;7.276;2022-12-18T16:23:52;36.27;;;16.53;;
19946;SDS011;10135;50.702;7.276;2022-12-18T16:25:53;34.27;;;16.17;;
19946;SDS011;10135;50.702;7.276;2022-12-18T16:27:54;37.80;;;17.27;;
19946;SDS011;10135;50.702;7.276;2022-12-18T16:29:56;33.73;;;16.53;;
19946;SDS011;10135;50.702;7.276;2022-12-18T16:31:57;33.17;;;15.90;;
19946;SDS011;10135;50.702;7.276;2022-12-18T16:34:45;35.87;;;16.33;;
19946;SDS011;10135;50.702;7.276;2022-12-18T16:36:25;36.30;;;16.77;;
19946;SDS011;10135;50.702;7.276;2022-12-18T16:38:26;39.73;;;17.33;;
19946;SDS011;10135;50.702;7.276;2022-12-18T16:40:26;32.53;;;16.30;;
19946;SDS011;10135;50.702;7.276;2022-12-18T16:42:27;36.27;;;17.40;;
19946;SDS011;10135;50.702;7.276;2022-12-18T16:44:28;35.67;;;17.10;;
19946;SDS011;10135;50.702;7.276;2022-12-18T16:46:28;38.13;;;17.80;;
19946;SDS011;10135;50.702;7.276;2022-12-18T16:48:30;37.87;;;17.57;;
19946;SDS011;10135;50.702;7.276;2022-12-18T16:50:30;41.70;;;18.67;;
19946;SDS011;10135;50.702;7.276;2022-12-18T16:52:31;41.47;;;17.83;;
19946;SDS011;10135;50.702;7.276;2022-12-18T16:54:33;39.13;;;17.63;;
19946;SDS011;10135;50.702;7.276;2022-12-18T16:56:35;40.53;;;17.77;;
19946;SDS011;10135;50.702;7.276;2022-12-18T16:58:36;41.60;;;17.93;;
19946;SDS011;10135;50.702;7.276;2022-12-18T17:00:37;41.53;;;18.23;;
19946;SDS011;10135;50.702;7.276;2022-12-18T17:02:38;38.83;;;17.83;;
19946;SDS011;10135;50.702;7.276;2022-12-18T17:04:38;42.93;;;18.73;;
19946;SDS011;10135;50.702;7.276;2022-12-18T17:06:40;37.40;;;17.93;;
19946;SDS011;10135;50.702;7.276;2022-12-18T17:08:43;41.77;;;18.20;;
19946;SDS011;10135;50.702;7.276;2022-12-18T17:10:44;38.43;;;17.77;;
19946;SDS011;10135;50.702;7.276;2022-12-18T17:12:45;42.23;;;18.77;;
19946;SDS011;10135;50.702;7.276;2022-12-18T17:14:45;42.60;;;19.13;;
19946;SDS011;10135;50.702;7.276;2022-12-18T17:16:46;36.80;;;17.50;;
19946;SDS011;10135;50.702;7.276;2022-12-18T17:18:47;39.57;;;18.43;;
19946;SDS011;10135;50.702;7.276;2022-12-18T17:20:48;41.90;;;18.73;;
19946;SDS011;10135;50.702;7.276;2022-12-18T17:22:49;37.93;;;18.03;;
19946;SDS011;10135;50.702;7.276;2022-12-18T17:24:49;37.53;;;17.10;;
19946;SDS011;10135;50.702;7.276;2022-12-18T17:26:50;43.93;;;19.27;;
19946;SDS011;10135;50.702;7.276;2022-12-18T17:28:51;43.53;;;18.00;;
19946;SDS011;10135;50.702;7.276;2022-12-18T17:30:52;40.60;;;18.13;;
19946;SDS011;10135;50.702;7.276;2022-12-18T17:32:54;40.83;;;18.27;;
19946;SDS011;10135;50.702;7.276;2022-12-18T17:34:54;44.20;;;19.33;;
19946;SDS011;10135;50.702;7.276;2022-12-18T17:36:55;43.17;;;18.43;;
19946;SDS011;10135;50.702;7.276;2022-12-18T17:38:56;42.60;;;18.37;;
19946;SDS011;10135;50.702;7.276;2022-12-18T17:41:00;43.07;;;18.27;;
19946;SDS011;10135;50.702;7.276;2022-12-18T17:43:07;38.83;;;17.77;;
19946;SDS011;10135;50.702;7.276;2022-12-18T17:45:09;41.80;;;18.10;;
19946;SDS011;10135;50.702;7.276;2022-12-18T17:47:11;39.07;;;17.77;;
19946;SDS011;10135;50.702;7.276;2022-12-18T17:49:12;41.57;;;18.00;;
19946;SDS011;10135;50.702;7.276;2022-12-18T17:51:14;38.73;;;18.00;;
19946;SDS011;10135;50.702;7.276;2022-12-18T17:53:16;41.87;;;18.40;;
19946;SDS011;10135;50.702;7.276;2022-12-18T17:55:17;41.27;;;18.50;;
19946;SDS011;10135;50.702;7.276;2022-12-18T17:57:17;42.60;;;18.70;;
19946;SDS011;10135;50.702;7.276;2022-12-18T17:59:18;41.70;;;18.70;;
19946;SDS011;10135;50.702;7.276;2022-12-18T18:01:20;43.70;;;19.57;;
19946;SDS011;10135;50.702;7.276;2022-12-18T18:03:23;42.27;;;18.50;;
19946;SDS011;10135;50.702;7.276;2022-12-18T18:05:25;44.87;;;19.00;;
19946;SDS011;10135;50.702;7.276;2022-12-18T18:07:26;43.07;;;19.03;;
19946;SDS011;10135;50.702;7.276;2022-12-18T18:09:27;45.83;;;18.47;;
19946;SDS011;10135;50.702;7.276;2022-12-18T18:11:27;44.17;;;18.80;;
19946;SDS011;10135;50.702;7.276;2022-12-18T18:13:46;41.23;;;18.17;;
19946;SDS011;10135;50.702;7.276;2022-12-18T18:16:03;45.53;;;18.53;;
19946;SDS011;10135;50.702;7.276;2022-12-18T18:18:04;41.27;;;18.33;;
19946;SDS011;10135;50.702;7.276;2022-12-18T18:20:05;44.57;;;19.77;;
19946;SDS011;10135;50.702;7.276;2022-12-18T18:22:07;46.13;;;19.27;;
19946;SDS011;10135;50.702;7.276;2022-12-18T18:24:07;41.50;;;18.10;;
19946;SDS011;10135;50.702;7.276;2022-12-18T18:26:10;51.23;;;21.90;;
19946;SDS011;10135;50.702;7.276;2022-12-18T18:28:11;44.07;;;19.47;;
19946;SDS011;10135;50.702;7.276;2022-12-18T18:30:12;43.43;;;18.97;;
19946;SDS011;10135;50.702;7.276;2022-12-18T18:32:12;46.03;;;18.23;;
19946;SDS011;10135;50.702;7.276;2022-12-18T18:34:14;41.13;;;18.90;;
19946;SDS011;10135;50.702;7.276;2022-12-18T18:36:21;45.37;;;18.97;;
19946;SDS011;10135;50.702;7.276;2022-12-18T18:38:23;44.33;;;18.50;;
19946;SDS011;10135;50.702;7.276;2022-12-18T18:40:23;48.33;;;19.70;;
19946;SDS011;10135;50.702;7.276;2022-12-18T18:42:24;41.00;;;18.13;;
19946;SDS011;10135;50.702;7.276;2022-12-18T18:44:25;41.63;;;18.10;;
19946;SDS011;10135;50.702;7.276;2022-12-18T18:46:25;43.30;;;19.47;;
19946;SDS011;10135;50.702;7.276;2022-12-18T18:48:27;42.70;;;18.13;;
19946;SDS011;10135;50.702;7.276;2022-12-18T18:50:31;48.47;;;19.57;;
19946;SDS011;10135;50.702;7.276;2022-12-18T18:52:32;42.30;;;19.00;;
19946;SDS011;10135;50.702;7.276;2022-12-18T18:54:32;45.00;;;18.67;;
19946;SDS011;10135;50.702;7.276;2022-12-18T18:56:33;44.20;;;19.27;;
19946;SDS011;10135;50.702;7.276;2022-12-18T18:58:34;45.97;;;19.07;;
19946;SDS011;10135;50.702;7.276;2022-12-18T19:00:35;43.07;;;19.10;;
19946;SDS011;10135;50.702;7.276;2022-12-18T19:02:35;41.67;;;18.40;;
19946;SDS011;10135;50.702;7.276;2022-12-18T19:04:36;45.13;;;17.73;;
19946;SDS011;10135;50.702;7.276;2022-12-18T19:06:37;43.63;;;18.23;;
19946;SDS011;10135;50.702;7.276;2022-12-18T19:08:38;45.27;;;19.23;;
19946;SDS011;10135;50.702;7.276;2022-12-18T19:10:39;44.33;;;18.13;;
19946;SDS011;10135;50.702;7.276;2022-12-18T19:12:40;50.37;;;19.63;;
19946;SDS011;10135;50.702;7.276;2022-12-18T19:14:59;47.60;;;18.80;;
19946;SDS011;10135;50.702;7.276;2022-12-18T19:17:00;43.60;;;18.67;;
19946;SDS011;10135;50.702;7.276;2022-12-18T19:19:01;44.57;;;19.40;;